Kewanee, Illinois
Current Conditions -  °F | °C
As of 4:15 AM on Tuesday 27 Jan 2015 (Local Time) from KC75 Reporting Station
Haze Haze  
Wind Chill: 29°   Ceiling: 4000
Heat Index: 29°   Visibility: 4mi
Dew Point: 27°   Wind: 3mph
Humidity: 92%   Direction: 350°N
Pressure: 29.99"   Gusts: NA
Location:  41.25°N, 89.92°W
Report Text: KC75 271015Z AUTO 35003KT 4SM BR OVC040 M01/M03 A2999 RMK AO2 T10151026
Loading
Personal Weather Stations






























Interactive Weather Map New forecast layout! Learn more

10-Day Weather Forecast

Advertisements
Track Severe Weather on mobile